createdAt,value
2017-04-05T00:00:05.696Z,35.7
2017-04-05T00:02:10.468Z,35.7
2017-04-05T00:04:05.209Z,35.7
2017-04-05T00:06:06.237Z,35.7
2017-04-05T00:08:08.541Z,35.8
2017-04-05T00:10:12.844Z,35.7
2017-04-05T00:12:05.792Z,35.7
2017-04-05T00:14:07.591Z,35.7
2017-04-05T00:16:05.838Z,35.7
2017-04-05T00:18:05.871Z,35.8
2017-04-05T00:20:08.292Z,35.8
2017-04-05T00:22:06.248Z,35.8
2017-04-05T00:24:06.053Z,35.8
2017-04-05T00:26:08.318Z,35.8
2017-04-05T00:28:11.097Z,35.7
2017-04-05T00:30:05.905Z,35.8
2017-04-05T00:32:05.670Z,35.8
2017-04-05T00:34:05.354Z,35.8
2017-04-05T00:36:05.383Z,35.8
2017-04-05T00:38:05.420Z,35.8
2017-04-05T00:40:05.125Z,35.8
2017-04-05T00:42:05.956Z,35.8
2017-04-05T00:44:08.208Z,35.8
2017-04-05T00:46:05.884Z,35.8
2017-04-05T00:48:05.870Z,35.8
2017-04-05T00:50:05.628Z,35.9
2017-04-05T00:52:05.434Z,35.9
2017-04-05T00:54:05.511Z,35.8
2017-04-05T00:56:07.709Z,35.8
2017-04-05T00:58:07.906Z,35.9
2017-04-05T01:00:08.284Z,35.9
2017-04-05T01:02:08.505Z,35.9
2017-04-05T01:04:10.293Z,35.9
2017-04-05T01:06:05.890Z,35.9
2017-04-05T01:08:10.173Z,36
2017-04-05T01:10:05.736Z,36
2017-04-05T01:12:13.680Z,36.1
2017-04-05T01:14:10.437Z,36
2017-04-05T01:16:05.117Z,36
2017-04-05T01:18:07.677Z,36.1
2017-04-05T01:20:05.952Z,36
2017-04-05T01:22:08.142Z,36.3
2017-04-05T01:24:06.018Z,36.1
2017-04-05T01:26:06.717Z,36
2017-04-05T01:28:07.946Z,36.1
2017-04-05T01:30:05.779Z,36.1
2017-04-05T01:32:05.583Z,36.1
2017-04-05T01:34:05.220Z,36.1
2017-04-05T01:36:06.064Z,36.1
2017-04-05T01:38:05.814Z,36.1
2017-04-05T01:40:08.118Z,36.1
2017-04-05T01:42:06.103Z,36.1
2017-04-05T01:44:05.898Z,36.1
2017-04-05T01:46:10.700Z,36.1
2017-04-05T01:48:05.623Z,36.1
2017-04-05T01:50:05.825Z,36.3
2017-04-05T01:52:05.585Z,36.1
2017-04-05T01:54:07.954Z,36.1
2017-04-05T01:56:05.811Z,36.1
2017-04-05T01:58:05.699Z,36.1
2017-04-05T02:00:05.583Z,36.1
2017-04-05T02:02:05.314Z,36.1
2017-04-05T02:04:07.554Z,36.1
2017-04-05T02:06:08.260Z,36.1
2017-04-05T02:08:08.534Z,36.1
2017-04-05T02:10:05.226Z,36.1
2017-04-05T02:12:06.046Z,36.1
2017-04-05T02:14:05.727Z,36.1
2017-04-05T02:16:05.496Z,36.1
2017-04-05T02:18:05.767Z,36.1
2017-04-05T02:20:04.977Z,36.1
2017-04-05T02:22:10.723Z,36.1
2017-04-05T02:24:05.768Z,36.1
2017-04-05T02:26:05.493Z,36.1
2017-04-05T02:28:05.165Z,36.1
2017-04-05T02:30:06.195Z,36.1
2017-04-05T02:32:05.907Z,36.2
2017-04-05T02:34:05.612Z,36.1
2017-04-05T02:36:08.164Z,36.1
2017-04-05T02:38:08.457Z,36.1
2017-04-05T02:40:05.145Z,35.9
2017-04-05T02:42:08.667Z,36.1
2017-04-05T02:44:05.382Z,36.1
2017-04-05T02:46:05.944Z,36.1
2017-04-05T02:48:05.997Z,36.1
2017-04-05T02:50:05.635Z,36.1
2017-04-05T02:52:07.908Z,36.1
2017-04-05T02:54:06.551Z,36.1
2017-04-05T02:56:05.416Z,36.1
2017-04-05T02:58:15.203Z,36.1
2017-04-05T03:00:06.647Z,36.1
2017-04-05T03:02:06.169Z,36.1
2017-04-05T03:04:05.401Z,36.1
2017-04-05T03:06:05.403Z,36.1
2017-04-05T03:08:05.670Z,36.1
2017-04-05T03:10:05.382Z,36.2
2017-04-05T03:12:05.501Z,35.9
2017-04-05T03:14:05.213Z,36.2
2017-04-05T03:16:11.016Z,36.2
2017-04-05T03:18:08.029Z,36.2
2017-04-05T03:20:05.919Z,36.2
2017-04-05T03:22:05.677Z,36.2
2017-04-05T03:24:05.758Z,36.2
2017-04-05T03:26:05.435Z,36
2017-04-05T03:28:05.213Z,36.2
2017-04-05T03:30:08.230Z,36
2017-04-05T03:32:08.065Z,36.2
2017-04-05T03:34:06.806Z,36.2
2017-04-05T03:36:06.148Z,36.2
2017-04-05T03:38:06.026Z,36.2
2017-04-05T03:40:05.281Z,36.2
2017-04-05T03:42:06.468Z,36.2
2017-04-05T03:44:05.369Z,36
2017-04-05T03:46:05.615Z,36.2
2017-04-05T03:48:05.446Z,36
2017-04-05T03:50:07.853Z,36
2017-04-05T03:52:08.118Z,36.3
2017-04-05T03:54:06.669Z,36.3
2017-04-05T03:56:05.889Z,36.2
2017-04-05T03:58:05.625Z,36
2017-04-05T04:00:05.736Z,36.1
2017-04-05T04:02:05.506Z,36
2017-04-05T04:04:05.430Z,36
2017-04-05T04:06:07.821Z,36
2017-04-05T04:08:05.125Z,36
2017-04-05T04:10:08.482Z,36.1
2017-04-05T04:12:05.755Z,36
2017-04-05T04:14:05.416Z,36
2017-04-05T04:16:10.315Z,36
2017-04-05T04:18:06.173Z,36
2017-04-05T04:20:08.381Z,36.1
2017-04-05T04:22:06.230Z,36.1
2017-04-05T04:24:16.175Z,36
2017-04-05T04:26:07.891Z,36.3
2017-04-05T04:28:08.129Z,36
2017-04-05T04:30:06.557Z,36
2017-04-05T04:32:05.326Z,36
2017-04-05T04:34:12.988Z,36
2017-04-05T04:36:09.512Z,36
2017-04-05T04:38:06.135Z,36
2017-04-05T04:40:05.068Z,36
2017-04-05T04:42:06.703Z,36.1
2017-04-05T04:44:07.949Z,36.1
2017-04-05T04:46:05.650Z,36
2017-04-05T04:48:06.131Z,36
2017-04-05T04:50:10.950Z,36
2017-04-05T04:52:05.665Z,36.1
2017-04-05T04:54:08.046Z,36
2017-04-05T04:56:05.715Z,36
2017-04-05T04:58:05.911Z,36
2017-04-05T05:00:05.790Z,36
2017-04-05T05:02:06.484Z,36
2017-04-05T05:04:05.156Z,36
2017-04-05T05:06:05.934Z,36.1
2017-04-05T05:08:05.629Z,36.1
2017-04-05T05:10:05.683Z,36
2017-04-05T05:12:05.730Z,36
2017-04-05T05:14:06.015Z,36.1
2017-04-05T05:16:05.779Z,36.1
2017-04-05T05:18:05.884Z,36.1
2017-04-05T05:20:05.580Z,36.1
2017-04-05T05:22:05.858Z,36.1
2017-04-05T05:24:07.441Z,36.1
2017-04-05T05:26:10.617Z,36.2
2017-04-05T05:28:05.327Z,36.1
2017-04-05T05:30:18.638Z,36.2
2017-04-05T05:32:13.016Z,36.2
2017-04-05T05:34:05.747Z,36.1
2017-04-05T05:36:05.816Z,36.1
2017-04-05T05:38:05.576Z,36.2
2017-04-05T05:40:05.383Z,36.1
2017-04-05T05:42:06.155Z,36.1
2017-04-05T05:44:05.431Z,36.2
2017-04-05T05:46:05.224Z,36.2
2017-04-05T05:48:06.456Z,36.2
2017-04-05T05:50:10.480Z,36.3
2017-04-05T05:52:05.447Z,36.3
2017-04-05T05:54:05.921Z,36.2
2017-04-05T05:56:06.039Z,36.1
2017-04-05T05:58:08.437Z,36.2
2017-04-05T06:00:13.658Z,36.2
2017-04-05T06:02:07.951Z,36.2
2017-04-05T06:04:05.637Z,36.2
2017-04-05T06:06:05.542Z,36.2
2017-04-05T06:08:07.891Z,36.2
2017-04-05T06:10:05.637Z,36.2
2017-04-05T06:12:05.867Z,36.2
2017-04-05T06:14:08.414Z,36.2
2017-04-05T06:16:07.686Z,36.2
2017-04-05T06:18:07.019Z,36.2
2017-04-05T06:20:05.325Z,36.2
2017-04-05T06:22:05.040Z,36.2
2017-04-05T06:24:08.461Z,36.3
2017-04-05T06:26:07.720Z,36.2
2017-04-05T06:28:07.575Z,36.2
2017-04-05T06:30:08.026Z,36.2
2017-04-05T06:32:06.016Z,36.2
2017-04-05T06:34:05.118Z,36.2
2017-04-05T06:36:05.991Z,36.2
2017-04-05T06:38:10.766Z,36.2
2017-04-05T06:40:05.668Z,36.3
2017-04-05T06:42:05.593Z,36.2
2017-04-05T06:44:05.287Z,36.2
2017-04-05T06:46:06.297Z,36.2
2017-04-05T06:48:08.823Z,36.1
2017-04-05T06:50:05.027Z,36.1
2017-04-05T06:52:05.235Z,36.2
2017-04-05T06:54:06.738Z,36.2
2017-04-05T06:56:05.455Z,36.2
2017-04-05T06:58:07.735Z,36.1
2017-04-05T07:00:06.270Z,36.1
2017-04-05T07:02:08.372Z,36.1
2017-04-05T07:04:05.062Z,36.1
2017-04-05T07:06:05.914Z,36.2
2017-04-05T07:08:05.650Z,36.1
2017-04-05T07:10:10.483Z,36.1
2017-04-05T07:12:10.703Z,36.1
2017-04-05T07:14:05.350Z,36.1
2017-04-05T07:16:05.025Z,36.1
2017-04-05T07:18:05.834Z,36.1
2017-04-05T07:20:05.061Z,36.1
2017-04-05T07:22:08.358Z,36.1
2017-04-05T07:24:05.844Z,36.1
2017-04-05T07:26:05.059Z,36.1
2017-04-05T07:28:05.738Z,36.1
2017-04-05T07:30:08.910Z,36.2
2017-04-05T07:32:05.120Z,36.2
2017-04-05T07:34:06.111Z,36.1
2017-04-05T07:36:05.917Z,36.2
2017-04-05T07:38:05.686Z,36.2
2017-04-05T07:40:05.470Z,36.2
2017-04-05T07:42:05.314Z,36.2
2017-04-05T07:44:05.054Z,36.2
2017-04-05T07:46:08.222Z,36.2
2017-04-05T07:48:06.233Z,36.2
2017-04-05T07:50:06.020Z,36.2
2017-04-05T07:52:05.935Z,36.2
2017-04-05T07:54:05.535Z,36.2
2017-04-05T07:56:17.914Z,36.2
2017-04-05T07:58:09.115Z,36.2
2017-04-05T08:00:05.953Z,36.1
2017-04-05T08:02:07.773Z,36.2
2017-04-05T08:04:05.479Z,36.2
2017-04-05T08:06:05.663Z,36.2
2017-04-05T08:08:07.851Z,36.2
2017-04-05T08:10:09.038Z,36.2
2017-04-05T08:12:06.014Z,36.2
2017-04-05T08:14:05.692Z,36.2
2017-04-05T08:16:05.375Z,36.2
2017-04-05T08:18:05.611Z,36.2
2017-04-05T08:20:05.343Z,36.3
2017-04-05T08:22:05.342Z,36.2
2017-04-05T08:24:05.398Z,36.2
2017-04-05T08:26:05.073Z,36.2
2017-04-05T08:28:05.758Z,36.2
2017-04-05T08:30:05.444Z,36.2
2017-04-05T08:32:05.155Z,36.2
2017-04-05T08:34:05.932Z,36.2
2017-04-05T08:36:05.766Z,36.2
2017-04-05T08:38:05.213Z,36.2
2017-04-05T08:40:05.903Z,36.2
2017-04-05T08:42:08.410Z,36.2
2017-04-05T08:44:05.106Z,36.2
2017-04-05T08:46:05.867Z,36.2
2017-04-05T08:48:05.732Z,36.1
2017-04-05T08:50:07.986Z,36.2
2017-04-05T08:52:05.692Z,36.2
2017-04-05T08:54:06.212Z,36.2
2017-04-05T08:56:08.440Z,36.2
2017-04-05T08:58:05.107Z,36.2
2017-04-05T09:00:05.922Z,36.2
2017-04-05T09:02:05.612Z,36.1
2017-04-05T09:04:05.315Z,36.2
2017-04-05T09:06:08.288Z,36.2
2017-04-05T09:08:05.268Z,36.1
2017-04-05T09:10:11.394Z,36.3
2017-04-05T09:12:13.028Z,36.3
2017-04-05T09:14:05.849Z,36.6
2017-04-05T09:16:05.116Z,36.1
2017-04-05T09:18:12.928Z,36.6
2017-04-05T09:20:08.155Z,36.6
2017-04-05T09:22:05.934Z,36.6
2017-04-05T09:24:05.813Z,36.7
2017-04-05T09:26:05.745Z,36.6
2017-04-05T09:28:07.964Z,36.7
2017-04-05T09:30:11.270Z,36.7
2017-04-05T09:32:05.943Z,36.7
2017-04-05T09:34:05.627Z,36.6
2017-04-05T09:36:05.464Z,36.7
2017-04-05T09:38:05.498Z,36.7
2017-04-05T09:40:07.993Z,36.8
2017-04-05T09:42:16.470Z,36.7
2017-04-05T09:44:05.384Z,36.7
2017-04-05T09:46:07.839Z,36.7
2017-04-05T09:48:05.714Z,36.7
2017-04-05T09:50:05.526Z,36.8
2017-04-05T09:52:05.273Z,36.8
2017-04-05T09:54:10.804Z,36.7
2017-04-05T09:56:07.626Z,36.7
2017-04-05T09:58:08.270Z,36.6
2017-04-05T10:00:05.357Z,36.6
2017-04-05T10:02:05.085Z,36.6
2017-04-05T10:04:05.362Z,36.5
2017-04-05T10:06:06.550Z,36.7
2017-04-05T10:08:05.208Z,36.5
2017-04-05T10:10:05.888Z,36.4
2017-04-05T10:12:08.473Z,36.8
2017-04-05T10:14:05.512Z,36.8
2017-04-05T10:16:05.264Z,37.3
2017-04-05T10:18:05.927Z,37.2
2017-04-05T10:20:10.201Z,37.4
2017-04-05T10:22:05.495Z,37.4
2017-04-05T10:24:07.905Z,37.4
2017-04-05T10:26:05.614Z,37.4
2017-04-05T10:28:05.824Z,37.6
2017-04-05T10:30:06.294Z,37.7
2017-04-05T10:32:05.247Z,37.8
2017-04-05T10:34:05.967Z,37.6
2017-04-05T10:36:08.103Z,37.7
2017-04-05T10:38:05.374Z,37.7
2017-04-05T10:40:05.026Z,37.5
2017-04-05T10:42:05.820Z,37.4
2017-04-05T10:44:07.629Z,37.5
2017-04-05T10:46:06.505Z,37.5
2017-04-05T10:48:10.959Z,37.4
2017-04-05T10:50:05.872Z,37.5
2017-04-05T10:52:05.137Z,37.5
2017-04-05T10:54:09.742Z,37.5
2017-04-05T10:56:08.040Z,37.1
2017-04-05T10:58:05.803Z,37.1
2017-04-05T11:00:05.624Z,37.1
2017-04-05T11:02:06.086Z,37.2
2017-04-05T11:04:07.936Z,37.1
2017-04-05T11:06:06.261Z,36.9
2017-04-05T11:08:05.949Z,37.2
2017-04-05T11:10:05.655Z,36.8
2017-04-05T11:12:05.800Z,36.9
2017-04-05T11:14:08.052Z,37.1
2017-04-05T11:16:05.794Z,37.2
2017-04-05T11:18:06.282Z,37
2017-04-05T11:20:06.034Z,37
2017-04-05T11:22:05.792Z,37.1
2017-04-05T11:24:08.597Z,37
2017-04-05T11:26:05.269Z,37
2017-04-05T11:28:05.922Z,36.9
2017-04-05T11:30:05.965Z,36.8
2017-04-05T11:32:05.616Z,36.7
2017-04-05T11:34:05.453Z,36.6
2017-04-05T11:36:05.472Z,36.6
2017-04-05T11:38:05.398Z,36.3
2017-04-05T11:40:07.913Z,36.2
2017-04-05T11:42:05.318Z,36.2
2017-04-05T11:44:06.070Z,36.1
2017-04-05T11:46:06.820Z,36.1
2017-04-05T11:48:08.414Z,36.1
2017-04-05T11:50:05.306Z,36.1
2017-04-05T11:52:11.054Z,36.1
2017-04-05T11:54:08.626Z,36.2
2017-04-05T11:56:05.294Z,36.2
2017-04-05T11:58:06.051Z,36.2
2017-04-05T12:00:05.904Z,36.2
2017-04-05T12:02:13.221Z,36.1
2017-04-05T12:04:05.966Z,36.1
2017-04-05T12:06:05.986Z,36.1
2017-04-05T12:08:07.731Z,36.1
2017-04-05T12:10:08.729Z,36.3
2017-04-05T12:12:07.457Z,36.3
2017-04-05T12:14:05.182Z,36.2
2017-04-05T12:16:06.522Z,36
2017-04-05T12:18:05.577Z,36.2
2017-04-05T12:20:10.542Z,35.9
2017-04-05T12:22:05.833Z,35.9
2017-04-05T12:24:05.631Z,36.2
2017-04-05T12:26:11.154Z,36.3
2017-04-05T12:28:05.248Z,36.1
2017-04-05T12:30:06.100Z,36
2017-04-05T12:32:05.804Z,36.2
2017-04-05T12:34:05.465Z,36
2017-04-05T12:36:06.605Z,36.2
2017-04-05T12:38:33.838Z,36.1
2017-04-05T12:40:10.609Z,36.1
2017-04-05T12:42:05.440Z,36.1
2017-04-05T12:46:10.101Z,36.2
2017-04-05T12:48:13.268Z,36.2
2017-04-05T12:50:22.014Z,36.2
2017-04-05T12:52:08.984Z,36.2
2017-04-05T12:54:16.682Z,36.1
2017-04-05T12:56:05.267Z,36.1
2017-04-05T12:58:13.822Z,36
2017-04-05T13:00:08.586Z,36.1
2017-04-05T13:02:05.288Z,36.1
2017-04-05T13:04:05.316Z,36.1
2017-04-05T13:06:07.839Z,36.1
2017-04-05T13:08:05.476Z,36
2017-04-05T13:10:05.486Z,36.1
2017-04-05T13:12:06.547Z,36
2017-04-05T13:14:07.839Z,36
2017-04-05T13:16:08.459Z,35.9
2017-04-05T13:18:05.678Z,35.9
2017-04-05T13:20:05.384Z,35.6
2017-04-05T13:22:05.633Z,35.9
2017-04-05T13:24:06.661Z,35.6
2017-04-05T13:26:07.247Z,35.6
2017-04-05T13:28:06.212Z,35.6
2017-04-05T13:30:08.930Z,35.6
2017-04-05T13:32:21.955Z,35.6
2017-04-05T13:34:07.611Z,35.5
2017-04-05T13:36:06.081Z,35.5
2017-04-05T13:38:07.867Z,35.5
2017-04-05T13:40:05.734Z,35.2
2017-04-05T13:42:06.153Z,35.5
2017-04-05T13:44:08.347Z,35.6
2017-04-05T13:46:05.574Z,35.6
2017-04-05T13:48:08.699Z,35.6
2017-04-05T13:50:05.853Z,35.6
2017-04-05T13:52:05.651Z,35.6
2017-04-05T13:54:06.122Z,35.7
2017-04-05T13:56:08.366Z,35.5
2017-04-05T13:58:07.770Z,35.5
2017-04-05T14:00:06.378Z,35.7
2017-04-05T14:02:05.103Z,35.7
2017-04-05T14:04:08.424Z,35.8
2017-04-05T14:06:05.698Z,35.8
2017-04-05T14:08:07.915Z,35.4
2017-04-05T14:10:07.687Z,35.4
2017-04-05T14:12:08.146Z,35.5
2017-04-05T14:14:05.971Z,35.2
2017-04-05T14:16:05.661Z,35.5
2017-04-05T14:18:06.480Z,35.5
2017-04-05T14:20:05.169Z,35.5
2017-04-05T14:22:05.852Z,35.5
2017-04-05T14:24:05.224Z,35.4
2017-04-05T14:26:05.915Z,35.4
2017-04-05T14:28:05.633Z,35.4
2017-04-05T14:30:05.531Z,35.4
2017-04-05T14:32:08.279Z,35.5
2017-04-05T14:34:05.522Z,35.5
2017-04-05T14:36:05.367Z,35.4
2017-04-05T14:38:07.579Z,35
2017-04-05T14:40:05.270Z,35
2017-04-05T14:42:06.147Z,35
2017-04-05T14:44:10.941Z,35
2017-04-05T14:46:06.001Z,35
2017-04-05T14:48:08.975Z,35
2017-04-05T14:50:05.649Z,35
2017-04-05T14:52:08.414Z,34.9
2017-04-05T14:54:14.002Z,34.8
2017-04-05T14:56:08.178Z,34.8
2017-04-05T14:58:05.847Z,34.8
2017-04-05T15:00:05.734Z,34.6
2017-04-05T15:02:05.630Z,34.5
2017-04-05T15:04:05.535Z,34.5
2017-04-05T15:06:05.626Z,34.5
2017-04-05T15:08:05.330Z,34.3
2017-04-05T15:10:07.531Z,33.9
2017-04-05T15:12:05.899Z,33.9
2017-04-05T15:14:05.616Z,33.7
2017-04-05T15:16:10.375Z,33.4
2017-04-05T15:18:09.913Z,33.4
2017-04-05T15:20:08.154Z,33.1
2017-04-05T15:22:05.913Z,33.1
2017-04-05T15:24:06.788Z,33
2017-04-05T15:26:05.528Z,33
2017-04-05T15:28:08.810Z,32.8
2017-04-05T15:30:09.643Z,32.8
2017-04-05T15:32:07.906Z,32.8
2017-04-05T15:34:05.632Z,32.8
2017-04-05T15:36:09.081Z,32.8
2017-04-05T15:38:07.916Z,32.9
2017-04-05T15:40:05.613Z,32.9
2017-04-05T15:42:07.993Z,32.9
2017-04-05T15:44:05.673Z,32.9
2017-04-05T15:46:05.323Z,32.7
2017-04-05T15:48:13.414Z,32.6
2017-04-05T15:50:05.241Z,32.6
2017-04-05T15:52:05.904Z,32.5
2017-04-05T15:54:05.965Z,32.5
2017-04-05T15:56:08.187Z,32.2
2017-04-05T15:58:05.408Z,32.2
2017-04-05T16:00:05.244Z,32.1
2017-04-05T16:02:06.068Z,32.1
2017-04-05T16:04:08.582Z,32.2
2017-04-05T16:06:06.916Z,32.2
2017-04-05T16:08:05.161Z,32.2
2017-04-05T16:10:05.819Z,32.2
2017-04-05T16:12:07.738Z,32.2
2017-04-05T16:14:05.980Z,32.2
2017-04-05T16:16:10.789Z,32.5
2017-04-05T16:18:08.693Z,32.6
2017-04-05T16:20:05.694Z,32.6
2017-04-05T16:22:05.851Z,32.8
2017-04-05T16:24:08.434Z,33.2
2017-04-05T16:26:05.165Z,32.9
2017-04-05T16:28:05.844Z,33
2017-04-05T16:30:05.914Z,33.4
2017-04-05T16:32:08.153Z,33.6
2017-04-05T16:34:05.122Z,33.6
2017-04-05T16:36:06.136Z,33.7
2017-04-05T16:38:06.231Z,33.8
2017-04-05T16:40:05.884Z,33.8
2017-04-05T16:42:05.965Z,34
2017-04-05T16:44:08.199Z,34.5
2017-04-05T16:46:05.883Z,34.3
2017-04-05T16:48:12.888Z,34.5
2017-04-05T16:50:06.020Z,34.5
2017-04-05T16:52:05.771Z,34.5
2017-04-05T16:54:08.318Z,35
2017-04-05T16:56:04.992Z,35
2017-04-05T16:58:08.198Z,35.4
2017-04-05T17:00:06.213Z,35.4
2017-04-05T17:02:05.920Z,35.5
2017-04-05T17:04:05.133Z,35.8
2017-04-05T17:06:06.184Z,36.2
2017-04-05T17:08:10.956Z,36
2017-04-05T17:10:05.852Z,35.9
2017-04-05T17:12:10.282Z,36
2017-04-05T17:14:07.692Z,35.2
2017-04-05T17:16:05.418Z,35.2
2017-04-05T17:18:05.461Z,35.7
2017-04-05T17:20:05.108Z,35.2
2017-04-05T17:22:05.290Z,36.4
2017-04-05T17:24:05.386Z,35.5
2017-04-05T17:26:15.193Z,35.3
2017-04-05T17:28:05.932Z,35.4
2017-04-05T17:30:05.827Z,35.9
2017-04-05T17:32:08.131Z,34.5
2017-04-05T17:34:08.058Z,34.5
2017-04-05T17:36:05.964Z,34.5
2017-04-05T17:38:05.661Z,36.2
2017-04-05T17:40:05.901Z,37.6
2017-04-05T17:42:11.298Z,37.8
2017-04-05T17:44:08.523Z,37.7
2017-04-05T17:46:05.934Z,37.7
2017-04-05T17:48:05.835Z,37.7
2017-04-05T17:50:05.554Z,37.9
2017-04-05T17:52:05.356Z,38.5
2017-04-05T17:54:05.426Z,38.9
2017-04-05T17:56:05.687Z,38.6
2017-04-05T17:58:06.233Z,38.6
2017-04-05T18:00:06.059Z,38.7
2017-04-05T18:02:11.061Z,38.8
2017-04-05T18:04:05.824Z,38.9
2017-04-05T18:06:11.532Z,38.3
2017-04-05T18:08:07.749Z,38.2
2017-04-05T18:10:05.516Z,38.2
2017-04-05T18:12:05.875Z,38.2
2017-04-05T18:14:08.229Z,38.5
2017-04-05T18:16:05.925Z,38.5
2017-04-05T18:18:11.034Z,38.4
2017-04-05T18:20:10.832Z,38.3
2017-04-05T18:22:05.522Z,38.4
2017-04-05T18:24:06.343Z,38.5
2017-04-05T18:26:10.092Z,38.4
2017-04-05T18:28:10.882Z,38.3
2017-04-05T18:30:06.150Z,38.3
2017-04-05T18:32:05.891Z,38.5
2017-04-05T18:34:05.668Z,38.4
2017-04-05T18:36:08.052Z,38.4
2017-04-05T18:38:05.768Z,38.4
2017-04-05T18:40:05.494Z,38.3
2017-04-05T18:42:08.573Z,38.1
2017-04-05T18:44:05.314Z,38.1
2017-04-05T18:46:05.447Z,38.4
2017-04-05T18:48:05.304Z,38.3
2017-04-05T18:50:05.585Z,38.5
2017-04-05T18:52:07.833Z,38.2
2017-04-05T18:54:05.851Z,38.2
2017-04-05T18:56:05.761Z,38.4
2017-04-05T18:58:06.042Z,38.5
2017-04-05T19:00:05.928Z,38.3
2017-04-05T19:02:05.905Z,38.3
2017-04-05T19:04:05.718Z,38.5
2017-04-05T19:06:05.791Z,38.5
2017-04-05T19:08:08.223Z,38.6
2017-04-05T19:10:06.398Z,38.6
2017-04-05T19:12:05.541Z,38.6
2017-04-05T19:14:05.229Z,38.8
2017-04-05T19:16:13.077Z,39.2
2017-04-05T19:18:07.078Z,39.2
2017-04-05T19:20:05.844Z,38.9
2017-04-05T19:22:06.087Z,38.9
2017-04-05T19:24:05.952Z,39.1
2017-04-05T19:26:05.814Z,38.9
2017-04-05T19:28:05.057Z,39.1
2017-04-05T19:30:09.099Z,38.8
2017-04-05T19:32:05.884Z,38.5
2017-04-05T19:34:08.072Z,38.8
2017-04-05T19:36:06.033Z,38.7
2017-04-05T19:38:12.949Z,38.9
2017-04-05T19:40:05.715Z,38.9
2017-04-05T19:42:05.788Z,38.4
2017-04-05T19:44:05.615Z,38.7
2017-04-05T19:46:06.341Z,38.4
2017-04-05T19:48:06.482Z,38.6
2017-04-05T19:50:08.117Z,46
2017-04-05T19:52:05.918Z,46.5
2017-04-05T19:54:05.572Z,47.2
2017-04-05T19:56:15.995Z,46.1
2017-04-05T19:58:08.341Z,46.1
2017-04-05T20:00:05.456Z,45.8
2017-04-05T20:02:05.289Z,45.5
2017-04-05T20:04:05.140Z,45.4
2017-04-05T20:06:06.166Z,45.7
2017-04-05T20:08:10.955Z,46
2017-04-05T20:10:08.246Z,45.8
2017-04-05T20:12:06.152Z,45.6
2017-04-05T20:14:05.870Z,45.7
2017-04-05T20:16:05.576Z,45.3
2017-04-05T20:18:05.669Z,45.6
2017-04-05T20:20:05.377Z,46.2
2017-04-05T20:22:08.423Z,45.5
2017-04-05T20:24:06.249Z,45.8
2017-04-05T20:26:08.471Z,46
2017-04-05T20:28:05.190Z,45.8
2017-04-05T20:30:06.092Z,45.5
2017-04-05T20:32:05.962Z,45.3
2017-04-05T20:34:05.716Z,45.7
2017-04-05T20:36:08.415Z,45.3
2017-04-05T20:38:05.370Z,45.6
2017-04-05T20:40:05.216Z,45.8
2017-04-05T20:42:06.150Z,45.3
2017-04-05T20:44:05.897Z,45.3
2017-04-05T20:46:05.858Z,45.5
2017-04-05T20:48:08.288Z,45.3
2017-04-05T20:50:06.037Z,45.4
2017-04-05T20:52:05.793Z,45.3
2017-04-05T20:54:06.256Z,45
2017-04-05T20:56:05.922Z,45.2
2017-04-05T20:58:05.174Z,45.3
2017-04-05T21:00:06.129Z,45.1
2017-04-05T21:02:08.384Z,44.8
2017-04-05T21:04:05.285Z,44.8
2017-04-05T21:06:05.829Z,44.9
2017-04-05T21:08:05.500Z,44.5
2017-04-05T21:10:05.587Z,44.6
2017-04-05T21:12:05.479Z,44.4
2017-04-05T21:14:05.209Z,44.5
2017-04-05T21:16:05.901Z,44.8
2017-04-05T21:18:08.663Z,44.7
2017-04-05T21:20:05.878Z,44.4
2017-04-05T21:22:05.585Z,44.4
2017-04-05T21:24:05.611Z,44.5
2017-04-05T21:26:15.730Z,44.4
2017-04-05T21:28:06.763Z,44.4
2017-04-05T21:30:08.451Z,44.4
2017-04-05T21:32:05.186Z,44.4
2017-04-05T21:34:05.949Z,44.4
2017-04-05T21:36:05.931Z,44.4
2017-04-05T21:42:05.737Z,44.4
2017-04-05T21:44:05.467Z,44.4
2017-04-05T21:46:05.152Z,44.4
2017-04-05T21:48:06.294Z,44.4
2017-04-05T21:50:05.033Z,44.4
2017-04-05T21:52:05.772Z,44.2
2017-04-05T21:54:06.198Z,44.4
2017-04-05T21:56:05.859Z,44.4
2017-04-05T21:58:05.703Z,44.4
2017-04-05T22:00:05.548Z,44.4
2017-04-05T22:02:05.216Z,44.4
2017-04-05T22:04:05.951Z,44
2017-04-05T22:06:11.113Z,43.6
2017-04-05T22:08:05.912Z,43.7
2017-04-05T22:10:05.699Z,44.2
2017-04-05T22:12:06.121Z,44.3
2017-04-05T22:14:11.184Z,43.9
2017-04-05T22:16:05.988Z,44.3
2017-04-05T22:18:06.575Z,44.1
2017-04-05T22:20:07.816Z,44
2017-04-05T22:22:10.571Z,44.3
2017-04-05T22:24:08.196Z,44.3
2017-04-05T22:26:05.910Z,44.2
2017-04-05T22:28:13.191Z,44.1
2017-04-05T22:30:06.061Z,44.2
2017-04-05T22:32:10.808Z,44.3
2017-04-05T22:34:13.104Z,44
2017-04-05T22:36:06.239Z,43.9
2017-04-05T22:38:05.941Z,44.2
2017-04-05T22:40:07.709Z,44.6
2017-04-05T22:42:10.621Z,44.3
2017-04-05T22:44:05.832Z,44.3
2017-04-05T22:46:05.706Z,44.4
2017-04-05T22:48:05.829Z,44.1
2017-04-05T22:50:05.705Z,43.9
2017-04-05T22:52:05.406Z,44.6
2017-04-05T22:54:10.333Z,44.1
2017-04-05T22:56:05.128Z,43.9
2017-04-05T22:58:05.785Z,43.9
2017-04-05T23:00:06.256Z,44
2017-04-05T23:02:11.995Z,43.8
2017-04-05T23:04:05.723Z,43.8
2017-04-05T23:06:05.759Z,43.6
2017-04-05T23:08:05.486Z,43.7
2017-04-05T23:10:05.193Z,44
2017-04-05T23:12:06.370Z,43.6
2017-04-05T23:14:07.581Z,43.6
2017-04-05T23:16:05.837Z,43.8
2017-04-05T23:18:06.086Z,43.6
2017-04-05T23:20:05.782Z,44.1
2017-04-05T23:22:05.490Z,43.3
2017-04-05T23:24:08.120Z,43.6
2017-04-05T23:26:10.930Z,43.8
2017-04-05T23:28:05.745Z,43.4
2017-04-05T23:30:05.665Z,44
2017-04-05T23:32:05.415Z,43.9
2017-04-05T23:34:06.176Z,43.6
2017-04-05T23:36:06.244Z,43.3
2017-04-05T23:38:08.479Z,43.2
2017-04-05T23:40:05.161Z,43.9
2017-04-05T23:42:05.958Z,43.3
2017-04-05T23:44:08.149Z,43.3
2017-04-05T23:46:05.846Z,43.7
2017-04-05T23:48:05.816Z,43.5
2017-04-05T23:50:05.241Z,43.2
2017-04-05T23:52:05.964Z,43.1
2017-04-05T23:54:05.375Z,43.7
2017-04-05T23:56:07.657Z,43.1
2017-04-05T23:58:05.369Z,43
